Albany, NY (12203)

11:05 AM EDT on September 25, 2016 (GMT -0400)
McKownville/SUNY Albany | | Change Station
Active Advisory: Frost Advisory

Elev 249 ft 42.68 °N, 73.83 °W | Updated 3 seconds ago

Partly Cloudy
Partly Cloudy
57.0 °F
Feels Like 57.0 °F
N
1.0
Wind Variable Wind from NNW
Gusts 2.0 mph

Today
High -- | Low -- °F
--% Chance of Precip.
Yesterday
High -- | Low -- °F
Precip. -- in
Pressure 30.23 in
Visibility 10.0 miles
Clouds Few 3000 ft
Few 25000 ft
Dew Point 38 °F
Humidity 50%
Rainfall 0.00 in
Snow Depth Not available.
6:46 AM 6:46 PM
Waning Crescent, 27% visible
METAR KALB 251451Z 33005KT 10SM FEW030 FEW250 14/02 A3023 RMK AO2 SLP237 T01390022 50001
Pressure 30.23 in
Visibility 10.0 miles
Clouds Few 3000 ft
Few 25000 ft
Dew Point 38 °F
Humidity 50%
Rainfall 0.00 in
Snow Depth Not available.
6:46 AM 6:46 PM
Waning Crescent, 27% visible
METAR KALB 251451Z 33005KT 10SM FEW030 FEW250 14/02 A3023 RMK AO2 SLP237 T01390022 50001

10-Day Weather Forecast

Almanac

Astronomy

Sep. 25, 2016 Rise Set
Actual Time
Civil Twilight
Nautical Twilight
Astronomical Twilight
Moon
Length of Visible Light
Length of Day
Tomorrow will be .
, % of the Moon is Illuminated

Today's Extremes

State Highs State Lows

Community

WunderPhotos

Upload Photos

1,941,629 photos uploaded!

WunderBlog® & News

Nearby

Air Quality

  Air Quality AQ Index Pollutant
Not available.

Snow Depth

Station Depth Elevation

Earthquake Activity

City Distance Mag. Time & Date
Minimum magnitude displayed is 2.5.

Coastal Water Temperatures

Place Temperature

Stations

Nearby Weather Stations

Station Location Temp. Windchill Dew Point Humidity Wind Precip. Elev Updated Type
                   

Watches & Warnings

Frost Advisory
Issued: 10:18 AM EDT Sep. 25, 2016 – National Weather Service

... Frost advisory in effect from 2 am to 8 am EDT Monday...

The National Weather Service in Albany has issued a frost
advisory... which is in effect from 2 am to 8 am EDT Monday.

* Locations... Mohawk Valley... Saratoga region... capital
region... Taconics... Mid Hudson valley... eastern
Catskills... northwest Connecticut... Berkshires and all of
southern Vermont.

* Temperatures... in the middle 30s.

* Impacts... potential frost damage to sensitive plants and crops.

Precautionary/preparedness actions...

A frost advisory means that widespread frost is expected.
Sensitive outdoor plants may be killed if left uncovered.